Time;durP1;ratioP1;P1;durP2;ratioP2;P2;SDS_P1;SDS_P2;PMS_P1;PMS_P2;Temp;Humidity;BMP_temperature;BMP_pressure;BME280_temperature;BME280_humidity;BME280_pressure;Samples;Min_cycle;Max_cycle;Signal;HPM_P1;HPM_P2
2022/08/27 00:02:11;;;;;;;12.90;10.90;;;20.60;99.90;;;;;;5092689;28;20478;-65
2022/08/27 00:04:39;;;;;;;11.67;10.57;;;20.70;99.90;;;;;;5092527;28;20452;-65
2022/08/27 00:07:07;;;;;;;12.87;11.60;;;20.70;99.90;;;;;;5092485;28;20457;-65
2022/08/27 00:09:34;;;;;;;13.13;11.67;;;20.80;99.90;;;;;;5092437;28;20450;-65
2022/08/27 00:12:00;;;;;;;14.23;12.93;;;20.80;99.90;;;;;;5092703;28;20451;-65
2022/08/27 00:14:29;;;;;;;13.83;12.63;;;20.70;99.90;;;;;;5092521;28;20450;-65
2022/08/27 00:16:56;;;;;;;12.77;11.67;;;20.60;99.90;;;;;;5092435;28;20478;-65
2022/08/27 00:19:23;;;;;;;12.30;11.30;;;20.50;99.90;;;;;;5092465;28;20904;-65
2022/08/27 00:21:49;;;;;;;12.87;11.57;;;20.50;99.90;;;;;;5092371;28;20446;-65
2022/08/27 00:24:16;;;;;;;12.97;11.97;;;20.60;99.90;;;;;;5092529;28;20750;-65
2022/08/27 00:26:44;;;;;;;13.73;12.43;;;20.50;99.90;;;;;;5092458;28;20446;-65
2022/08/27 00:29:11;;;;;;;11.70;10.67;;;20.40;99.90;;;;;;5092546;28;20446;-65
2022/08/27 00:31:38;;;;;;;11.40;10.50;;;20.50;99.90;;;;;;5096080;28;20447;-65
2022/08/27 00:34:05;;;;;;;13.70;11.67;;;20.50;99.90;;;;;;5095984;28;20455;-65
2022/08/27 00:36:31;;;;;;;15.13;13.73;;;20.60;99.90;;;;;;5095761;28;20492;-65
2022/08/27 00:38:58;;;;;;;15.00;13.70;;;20.50;99.90;;;;;;5096055;28;20446;-65
2022/08/27 00:41:24;;;;;;;17.07;14.30;;;20.40;99.90;;;;;;5095959;28;20453;-65
2022/08/27 00:43:53;;;;;;;15.80;14.30;;;20.10;99.90;;;;;;5095833;28;20446;-65
2022/08/27 00:46:24;;;;;;;15.90;14.50;;;20.00;99.90;;;;;;5095838;28;20482;-65
2022/08/27 00:48:55;;;;;;;17.00;13.63;;;20.20;99.90;;;;;;5095472;28;20589;-65
2022/08/27 00:51:23;;;;;;;17.30;15.50;;;20.30;99.90;;;;;;5096021;28;20529;-65
2022/08/27 00:53:51;;;;;;;15.03;13.43;;;20.40;99.90;;;;;;5095714;28;20529;-66
2022/08/27 00:56:21;;;;;;;13.10;11.90;;;20.50;99.90;;;;;;5095639;28;20443;-65
2022/08/27 00:58:51;;;;;;;14.00;12.70;;;20.60;99.90;;;;;;5095570;28;20451;-65
2022/08/27 01:01:20;;;;;;;14.80;13.20;;;20.50;99.90;;;;;;5095436;28;20451;-65
2022/08/27 01:03:50;;;;;;;13.87;12.67;;;20.50;99.90;;;;;;5095389;28;20634;-65
2022/08/27 01:06:20;;;;;;;13.03;11.73;;;20.40;99.90;;;;;;5095798;28;20469;-65
2022/08/27 01:08:51;;;;;;;13.90;12.60;;;20.40;99.90;;;;;;5095460;28;20451;-65
2022/08/27 01:11:17;;;;;;;14.10;12.73;;;20.40;99.90;;;;;;5095315;28;20493;-65
2022/08/27 01:13:44;;;;;;;14.77;13.37;;;20.20;99.90;;;;;;5095192;28;20446;-65
2022/08/27 01:16:15;;;;;;;13.63;12.40;;;20.20;99.90;;;;;;5095044;28;20537;-65
2022/08/27 01:18:42;;;;;;;14.53;13.13;;;20.30;99.90;;;;;;5095325;28;20450;-65
2022/08/27 01:21:19;;;;;;;15.00;13.67;;;20.40;99.90;;;;;;5095180;28;20439;-65
2022/08/27 01:23:53;;;;;;;15.33;13.93;;;20.50;99.90;;;;;;5095100;28;20785;-65
2022/08/27 01:26:22;;;;;;;15.33;13.67;;;20.60;99.90;;;;;;5094941;28;20946;-65
2022/08/27 01:28:49;;;;;;;15.13;13.47;;;20.60;99.90;;;;;;5094888;28;20442;-65
2022/08/27 01:31:15;;;;;;;13.83;12.50;;;20.70;99.90;;;;;;5095049;28;20439;-65
2022/08/27 01:33:54;;;;;;;14.70;13.20;;;20.70;99.90;;;;;;5094960;28;20801;-65
2022/08/27 01:36:21;;;;;;;14.97;13.47;;;20.80;99.90;;;;;;5094863;28;20446;-65
2022/08/27 01:38:47;;;;;;;16.07;14.77;;;20.80;99.90;;;;;;5094639;28;20484;-65
2022/08/27 01:41:14;;;;;;;16.20;14.67;;;20.50;99.90;;;;;;5094198;28;20453;-65
2022/08/27 01:43:42;;;;;;;16.37;14.90;;;20.50;99.90;;;;;;5094773;28;20447;-65
2022/08/27 01:46:08;;;;;;;18.23;15.03;;;20.30;99.90;;;;;;5094724;28;20519;-65
2022/08/27 01:48:35;;;;;;;16.80;15.07;;;20.30;99.90;;;;;;5094527;28;20478;-65
2022/08/27 01:51:01;;;;;;;14.80;13.30;;;20.20;99.90;;;;;;5094606;28;20859;-65
2022/08/27 01:53:28;;;;;;;17.30;15.93;;;20.20;99.90;;;;;;5094346;28;20450;-65
2022/08/27 01:55:56;;;;;;;15.57;13.37;;;20.20;99.90;;;;;;5094585;28;20805;-65
2022/08/27 01:58:26;;;;;;;16.43;14.87;;;20.30;99.90;;;;;;5094505;28;20479;-65
2022/08/27 02:00:58;;;;;;;15.93;14.43;;;20.40;99.90;;;;;;5094407;28;20453;-65
2022/08/27 02:03:25;;;;;;;14.90;13.50;;;20.50;99.90;;;;;;5094398;28;20863;-65
2022/08/27 02:05:53;;;;;;;16.70;15.00;;;20.50;99.90;;;;;;5094216;28;20933;-65
2022/08/27 02:08:20;;;;;;;15.63;14.30;;;20.60;99.90;;;;;;5094325;28;20458;-65
2022/08/27 02:10:48;;;;;;;15.50;14.10;;;20.70;99.90;;;;;;5094293;28;20442;-65
2022/08/27 02:13:16;;;;;;;16.70;14.20;;;20.70;99.90;;;;;;5094143;28;20801;-65
2022/08/27 02:15:43;;;;;;;17.33;14.97;;;20.80;99.90;;;;;;5093870;28;20959;-65
2022/08/27 02:18:12;;;;;;;15.50;13.90;;;20.70;99.90;;;;;;5093972;28;20485;-65
2022/08/27 02:20:39;;;;;;;14.77;13.37;;;20.80;99.90;;;;;;5093848;28;20442;-65
2022/08/27 02:23:06;;;;;;;14.47;13.23;;;20.80;99.90;;;;;;5094109;28;20449;-65
2022/08/27 02:25:33;;;;;;;15.43;14.07;;;20.90;99.90;;;;;;5093986;28;20505;-66
2022/08/27 02:28:00;;;;;;;16.80;15.10;;;20.90;99.90;;;;;;5093965;28;20443;-65
2022/08/27 02:30:28;;;;;;;15.57;13.80;;;21.00;99.90;;;;;;5093818;28;20446;-65
2022/08/27 02:32:55;;;;;;;15.57;14.03;;;21.00;99.90;;;;;;5093758;28;20443;-65
2022/08/27 02:35:24;;;;;;;15.70;14.00;;;21.10;99.90;;;;;;5093479;28;20612;-65
2022/08/27 02:37:52;;;;;;;15.70;14.10;;;21.10;99.90;;;;;;5093696;28;20540;-65
2022/08/27 02:40:21;;;;;;;16.50;14.77;;;21.10;99.90;;;;;;5093720;28;20490;-65
2022/08/27 02:42:48;;;;;;;19.33;15.90;;;21.20;99.90;;;;;;5093634;28;20901;-65
2022/08/27 02:45:16;;;;;;;16.70;15.10;;;21.20;99.90;;;;;;5093299;28;20949;-65
2022/08/27 02:47:43;;;;;;;19.70;17.60;;;21.30;99.90;;;;;;5093194;28;20480;-65
2022/08/27 02:50:11;;;;;;;18.80;16.80;;;21.30;99.90;;;;;;5093347;28;20934;-65
2022/08/27 02:52:38;;;;;;;22.93;18.43;;;21.40;99.90;;;;;;5093367;28;20583;-65
2022/08/27 02:55:06;;;;;;;19.77;17.47;;;21.30;99.90;;;;;;5093404;28;20541;-65
2022/08/27 02:57:33;;;;;;;22.93;15.60;;;21.40;99.90;;;;;;5093343;28;20807;-65
2022/08/27 02:59:59;;;;;;;24.77;21.27;;;21.40;99.90;;;;;;5093284;28;20481;-65
2022/08/27 03:02:26;;;;;;;20.63;18.47;;;21.50;99.90;;;;;;5093343;28;20453;-65
2022/08/27 03:04:53;;;;;;;28.97;21.57;;;21.40;99.90;;;;;;5093334;28;20446;-65
2022/08/27 03:07:22;;;;;;;31.83;24.07;;;21.50;99.90;;;;;;5093248;28;20446;-65
2022/08/27 03:09:50;;;;;;;25.20;20.00;;;21.50;99.90;;;;;;5093164;28;20534;-65
2022/08/27 03:12:16;;;;;;;25.97;20.07;;;21.50;99.90;;;;;;5093049;28;20533;-65
2022/08/27 03:14:43;;;;;;;25.93;22.70;;;21.50;99.90;;;;;;5092813;28;21025;-65
2022/08/27 03:19:54;;;;;;;23.60;21.10;;;21.40;99.90;;;;;;5093040;28;20445;-65
2022/08/27 03:22:20;;;;;;;27.87;23.23;;;21.40;99.90;;;;;;5092934;28;20541;-65
2022/08/27 03:24:47;;;;;;;22.97;19.40;;;21.40;99.90;;;;;;5092932;28;20507;-65
2022/08/27 03:27:15;;;;;;;25.53;21.17;;;21.40;99.90;;;;;;5092871;28;20550;-65
2022/08/27 03:29:41;;;;;;;25.20;21.27;;;21.40;99.90;;;;;;5093050;28;20442;-65
2022/08/27 03:32:08;;;;;;;20.50;18.20;;;21.30;99.90;;;;;;5092987;28;20446;-65
2022/08/27 03:34:34;;;;;;;23.60;20.87;;;21.30;99.90;;;;;;5092910;28;20545;-65
2022/08/27 03:37:01;;;;;;;27.60;21.77;;;21.30;99.90;;;;;;5092813;28;20453;-65
2022/08/27 03:39:27;;;;;;;25.30;21.40;;;21.30;99.90;;;;;;5092883;28;20451;-65
2022/08/27 03:41:54;;;;;;;24.33;20.60;;;21.40;99.90;;;;;;5092672;28;20960;-65
2022/08/27 03:44:22;;;;;;;22.73;19.40;;;21.40;99.90;;;;;;5092809;28;20493;-65
2022/08/27 03:46:49;;;;;;;23.63;20.00;;;21.40;99.90;;;;;;5092698;28;20453;-66
2022/08/27 03:49:17;;;;;;;22.77;20.37;;;21.40;99.90;;;;;;5092746;28;20496;-65
2022/08/27 03:51:43;;;;;;;25.40;21.23;;;21.40;99.90;;;;;;5092617;28;20533;-66
2022/08/27 03:54:10;;;;;;;24.80;20.20;;;21.40;99.90;;;;;;5092569;28;20454;-65
2022/08/27 03:56:38;;;;;;;25.40;21.63;;;21.30;99.90;;;;;;5092456;28;20806;-66
2022/08/27 03:59:04;;;;;;;31.13;22.03;;;21.40;99.90;;;;;;5092705;28;20528;-65
2022/08/27 04:01:33;;;;;;;26.03;21.90;;;21.40;99.90;;;;;;5092760;28;20496;-66
2022/08/27 04:03:59;;;;;;;28.17;22.80;;;21.40;99.90;;;;;;5092647;28;20474;-65
2022/08/27 04:06:27;;;;;;;25.17;22.53;;;21.40;99.90;;;;;;5096483;28;20487;-66
2022/08/27 04:08:54;;;;;;;27.43;22.63;;;21.40;99.90;;;;;;5096453;28;20450;-66
2022/08/27 04:11:21;;;;;;;27.17;24.10;;;21.40;99.90;;;;;;5096666;28;20521;-65
2022/08/27 04:13:47;;;;;;;30.73;23.97;;;21.40;99.90;;;;;;5096499;28;20449;-66
2022/08/27 04:16:14;;;;;;;30.13;24.10;;;21.40;99.90;;;;;;5096482;28;20446;-65
2022/08/27 04:18:42;;;;;;;26.93;24.00;;;21.40;99.90;;;;;;5096324;28;20843;-65
2022/08/27 04:21:10;;;;;;;24.80;21.83;;;21.40;99.90;;;;;;5096304;28;20453;-65
2022/08/27 04:23:37;;;;;;;28.40;22.63;;;21.40;99.90;;;;;;5096194;28;20454;-65
2022/08/27 04:26:04;;;;;;;24.17;20.30;;;21.40;99.90;;;;;;5096476;28;20478;-66
2022/08/27 04:28:31;;;;;;;30.23;24.13;;;21.40;99.90;;;;;;5096259;28;20454;-66
2022/08/27 04:30:58;;;;;;;25.33;22.30;;;21.20;99.90;;;;;;5096239;28;20450;-66
2022/08/27 04:33:24;;;;;;;31.17;24.70;;;21.20;99.90;;;;;;5096119;28;20452;-65
2022/08/27 04:35:58;;;;;;;20.73;18.60;;;21.30;99.90;;;;;;5096004;28;20447;-66
2022/08/27 04:38:24;;;;;;;30.03;22.70;;;21.30;99.90;;;;;;5096100;28;20510;-65
2022/08/27 04:43:37;;;;;;;33.17;23.77;;;21.50;99.90;;;;;;5092086;28;20525;-65
2022/08/27 04:46:04;;;;;;;33.83;23.43;;;21.50;99.90;;;;;;5095723;28;20456;-65
2022/08/27 04:48:31;;;;;;;31.57;23.30;;;21.50;99.90;;;;;;5095365;28;20480;-65
2022/08/27 04:50:58;;;;;;;27.23;21.10;;;21.50;99.90;;;;;;5095847;28;20442;-66
2022/08/27 04:53:25;;;;;;;28.83;22.70;;;21.50;99.90;;;;;;5095987;28;20473;-66
2022/08/27 04:55:54;;;;;;;28.30;22.03;;;21.50;99.90;;;;;;5095796;28;20533;-65
2022/08/27 04:58:22;;;;;;;29.73;23.03;;;21.50;99.90;;;;;;5095742;28;20478;-65
2022/08/27 05:00:51;;;;;;;37.07;23.90;;;21.50;99.90;;;;;;5095532;28;20447;-66
2022/08/27 05:03:22;;;;;;;32.13;24.30;;;21.50;99.90;;;;;;5095352;28;20942;-66
2022/08/27 05:05:49;;;;;;;29.20;20.40;;;21.50;99.90;;;;;;5095502;28;20450;-66
2022/08/27 05:08:17;;;;;;;28.33;21.10;;;21.50;99.90;;;;;;5095448;28;20457;-66
2022/08/27 05:10:46;;;;;;;23.97;20.63;;;21.50;99.90;;;;;;5095382;28;20480;-66
2022/08/27 05:13:14;;;;;;;24.53;20.00;;;21.60;99.90;;;;;;5095265;28;20443;-66
2022/08/27 05:15:41;;;;;;;23.50;19.30;;;21.60;99.90;;;;;;5094331;28;20447;-66
2022/08/27 05:18:08;;;;;;;24.17;20.33;;;21.60;99.90;;;;;;5094505;28;21015;-66
2022/08/27 05:20:42;;;;;;;21.97;19.60;;;21.60;99.90;;;;;;5095337;28;20813;-66
2022/08/27 05:23:08;;;;;;;24.90;20.13;;;21.60;99.90;;;;;;5095251;28;20453;-66
2022/08/27 05:25:40;;;;;;;26.00;21.03;;;21.70;99.90;;;;;;5095058;28;20442;-66
2022/08/27 05:28:07;;;;;;;20.20;17.77;;;21.70;99.90;;;;;;5095003;28;20533;-66
2022/08/27 05:30:37;;;;;;;21.50;19.20;;;21.70;99.90;;;;;;5095229;28;20533;-66
2022/08/27 05:33:04;;;;;;;27.20;20.70;;;21.70;99.90;;;;;;5095077;28;20450;-66
2022/08/27 05:35:31;;;;;;;27.13;20.33;;;21.70;99.90;;;;;;5094874;28;20447;-65
2022/08/27 05:37:58;;;;;;;27.10;20.63;;;21.70;99.90;;;;;;5094720;28;20474;-66
2022/08/27 05:40:25;;;;;;;23.30;19.80;;;21.60;99.90;;;;;;5094727;28;20453;-66
2022/08/27 05:42:53;;;;;;;22.90;19.53;;;21.60;99.90;;;;;;5094486;28;20439;-66
2022/08/27 05:45:20;;;;;;;25.77;21.10;;;21.50;99.90;;;;;;5094692;28;20442;-66
2022/08/27 05:47:46;;;;;;;29.50;21.60;;;21.50;99.90;;;;;;5094463;28;20476;-65
2022/08/27 05:50:13;;;;;;;25.03;19.97;;;21.50;99.90;;;;;;5094645;28;20446;-65
2022/08/27 05:52:39;;;;;;;20.83;18.30;;;21.60;99.90;;;;;;5094492;28;20446;-65
2022/08/27 05:55:07;;;;;;;23.53;20.30;;;21.60;99.90;;;;;;5094325;28;20472;-65
2022/08/27 05:57:34;;;;;;;22.13;17.77;;;21.60;99.90;;;;;;5094610;28;20496;-66
2022/08/27 06:02:46;;;;;;;19.10;16.93;;;21.60;99.90;;;;;;5094345;28;20445;-65
2022/08/27 06:05:12;;;;;;;17.10;15.30;;;21.60;99.90;;;;;;5094113;28;20537;-66
2022/08/27 06:07:39;;;;;;;20.70;16.63;;;21.60;99.90;;;;;;5094001;28;20787;-66
2022/08/27 06:10:07;;;;;;;17.93;16.13;;;21.60;99.90;;;;;;5094246;28;20477;-66
2022/08/27 06:12:33;;;;;;;16.97;14.93;;;21.60;99.90;;;;;;5094250;28;20541;-65
2022/08/27 06:15:01;;;;;;;21.17;17.77;;;21.70;99.90;;;;;;5093888;28;20926;-66
2022/08/27 06:17:29;;;;;;;20.20;17.27;;;21.70;99.90;;;;;;5094009;28;20472;-66
2022/08/27 06:19:56;;;;;;;23.20;17.83;;;21.70;99.90;;;;;;5093887;28;20482;-65
2022/08/27 06:22:23;;;;;;;25.90;18.70;;;21.70;99.90;;;;;;5093817;28;20529;-66
2022/08/27 06:24:49;;;;;;;19.83;17.73;;;21.70;99.90;;;;;;5094016;28;20503;-66
2022/08/27 06:27:17;;;;;;;19.63;17.47;;;21.70;99.90;;;;;;5093450;28;20446;-66
2022/08/27 06:29:45;;;;;;;22.97;17.70;;;21.80;99.90;;;;;;5093948;28;20462;-66
2022/08/27 06:32:13;;;;;;;20.60;17.50;;;21.70;99.90;;;;;;5093842;28;20454;-65
2022/08/27 06:34:40;;;;;;;21.67;19.33;;;21.70;99.90;;;;;;5093580;28;20450;-66
2022/08/27 06:37:07;;;;;;;21.00;18.07;;;21.50;99.90;;;;;;5093767;28;20485;-65
2022/08/27 06:39:35;;;;;;;22.80;18.50;;;21.60;99.90;;;;;;5093626;28;20505;-66
2022/08/27 06:42:01;;;;;;;22.33;19.00;;;21.70;99.90;;;;;;5093572;28;20453;-66
2022/08/27 06:44:28;;;;;;;19.23;16.73;;;21.70;99.90;;;;;;5093441;28;20451;-66
2022/08/27 06:46:55;;;;;;;21.13;17.43;;;21.50;99.90;;;;;;5093191;28;20449;-66
2022/08/27 06:49:23;;;;;;;19.50;17.40;;;21.50;99.90;;;;;;5093385;28;20476;-66
2022/08/27 06:51:50;;;;;;;18.47;16.43;;;21.50;99.90;;;;;;5093524;28;20802;-66
2022/08/27 06:54:18;;;;;;;21.37;16.80;;;21.60;99.90;;;;;;5093480;28;20446;-66
2022/08/27 06:56:45;;;;;;;17.67;15.07;;;21.60;99.90;;;;;;5093347;28;20442;-66
2022/08/27 06:59:14;;;;;;;17.67;14.07;;;21.70;99.90;;;;;;5093251;28;20921;-65
2022/08/27 07:01:42;;;;;;;16.70;14.97;;;21.70;99.90;;;;;;5093063;28;21007;-65
2022/08/27 07:04:11;;;;;;;15.30;13.90;;;21.80;99.90;;;;;;5093025;28;20956;-66
2022/08/27 07:06:40;;;;;;;14.27;12.93;;;21.80;99.90;;;;;;5093464;28;21037;-65
2022/08/27 07:09:07;;;;;;;16.03;14.43;;;21.80;99.90;;;;;;5093245;28;20847;-66
2022/08/27 07:11:34;;;;;;;15.07;13.63;;;21.90;99.90;;;;;;5093136;28;20485;-65
2022/08/27 07:14:01;;;;;;;14.07;12.80;;;21.90;99.90;;;;;;5093331;28;20537;-66
2022/08/27 07:16:29;;;;;;;15.87;14.27;;;21.90;99.90;;;;;;5092907;28;20450;-66
2022/08/27 07:18:58;;;;;;;14.90;13.47;;;21.80;99.90;;;;;;5093195;28;20485;-65
2022/08/27 07:21:25;;;;;;;15.20;13.80;;;21.70;99.90;;;;;;5093129;28;20448;-65
2022/08/27 07:23:54;;;;;;;14.33;13.03;;;21.80;99.90;;;;;;5093025;28;20457;-65
2022/08/27 07:26:22;;;;;;;12.50;11.40;;;21.80;99.90;;;;;;5093039;28;20482;-66
2022/08/27 07:28:50;;;;;;;13.17;12.03;;;21.90;99.90;;;;;;5092963;28;20458;-65
2022/08/27 07:31:19;;;;;;;15.70;13.50;;;22.00;99.90;;;;;;5092865;28;20455;-65
2022/08/27 07:33:46;;;;;;;14.30;12.90;;;22.10;99.90;;;;;;5093041;28;20447;-66
2022/08/27 07:36:13;;;;;;;18.17;13.30;;;22.10;99.90;;;;;;5092949;28;20821;-66
2022/08/27 07:38:40;;;;;;;11.70;10.60;;;22.10;99.90;;;;;;5092849;28;20920;-65
2022/08/27 07:41:09;;;;;;;13.13;11.77;;;22.20;99.90;;;;;;5096362;28;20482;-65
2022/08/27 07:46:22;;;;;;;13.43;12.17;;;22.30;99.90;;;;;;5097006;28;20449;-66
2022/08/27 07:48:49;;;;;;;14.23;12.93;;;22.40;99.90;;;;;;5096846;28;20516;-66
2022/08/27 07:51:18;;;;;;;12.17;11.00;;;22.40;99.90;;;;;;5097030;28;20545;-65
2022/08/27 07:53:45;;;;;;;14.07;12.87;;;22.50;99.90;;;;;;5096833;28;20450;-66
2022/08/27 07:56:13;;;;;;;13.63;12.33;;;22.50;99.90;;;;;;5096646;28;20469;-66
2022/08/27 07:58:40;;;;;;;12.90;11.80;;;22.60;99.90;;;;;;5096809;28;20446;-66
2022/08/27 08:01:07;;;;;;;13.10;12.00;;;22.60;99.90;;;;;;5096720;28;20448;-66
2022/08/27 08:03:34;;;;;;;12.33;11.30;;;22.60;99.90;;;;;;5096621;28;20443;-66
2022/08/27 08:06:04;;;;;;;13.50;12.30;;;22.60;99.90;;;;;;5096492;28;20469;-66
2022/08/27 08:08:31;;;;;;;12.63;11.43;;;22.70;99.90;;;;;;5096451;28;20988;-66
2022/08/27 08:10:58;;;;;;;10.17;9.23;;;22.70;99.90;;;;;;5096631;28;20453;-66
2022/08/27 08:13:26;;;;;;;10.57;9.57;;;22.80;99.90;;;;;;5096590;28;20805;-66
2022/08/27 08:15:52;;;;;;;10.70;9.60;;;22.80;99.90;;;;;;5096384;28;20747;-66
2022/08/27 08:18:19;;;;;;;9.30;8.50;;;22.80;99.90;;;;;;5096387;28;20449;-66
2022/08/27 08:20:46;;;;;;;10.50;9.63;;;22.80;99.90;;;;;;5096253;28;20553;-66
2022/08/27 08:23:13;;;;;;;9.43;8.73;;;22.80;99.90;;;;;;5096089;28;20453;-66
2022/08/27 08:25:40;;;;;;;10.47;9.47;;;22.80;99.90;;;;;;5096324;28;20801;-66
2022/08/27 08:28:07;;;;;;;9.77;9.00;;;22.80;99.90;;;;;;5096174;28;20486;-66
2022/08/27 08:30:35;;;;;;;8.93;8.23;;;22.80;99.90;;;;;;5096189;28;20801;-66
2022/08/27 08:33:01;;;;;;;8.90;8.30;;;22.80;99.90;;;;;;5096047;28;20536;-66
2022/08/27 08:35:28;;;;;;;9.40;8.70;;;22.80;99.90;;;;;;5095938;28;20456;-65
2022/08/27 08:37:54;;;;;;;10.97;10.07;;;22.90;99.90;;;;;;5095859;28;20519;-66
2022/08/27 08:40:30;;;;;;;10.30;9.40;;;23.00;99.90;;;;;;5095983;28;20482;-66
2022/08/27 08:42:57;;;;;;;9.63;8.83;;;23.00;99.90;;;;;;5095987;28;20960;-66
2022/08/27 08:45:27;;;;;;;10.07;9.17;;;23.10;99.90;;;;;;5095852;28;20537;-66
2022/08/27 08:48:02;;;;;;;10.23;9.33;;;23.10;99.90;;;;;;5095583;28;20470;-65
2022/08/27 08:50:34;;;;;;;10.57;9.67;;;23.10;99.90;;;;;;5095356;28;20926;-65
2022/08/27 08:53:09;;;;;;;11.50;9.30;;;23.10;99.90;;;;;;5095859;28;20465;-66
2022/08/27 08:55:41;;;;;;;10.73;9.83;;;23.00;99.90;;;;;;5095700;28;20450;-66
2022/08/27 08:58:14;;;;;;;9.77;8.97;;;23.10;99.90;;;;;;5095526;28;20454;-66
2022/08/27 09:00:43;;;;;;;11.90;11.00;;;23.10;99.90;;;;;;5095372;28;20479;-66
2022/08/27 09:03:13;;;;;;;9.87;9.10;;;23.10;99.90;;;;;;5095643;28;20484;-66
2022/08/27 09:05:53;;;;;;;11.33;10.50;;;23.00;99.90;;;;;;5095835;28;20452;-65
2022/08/27 09:08:25;;;;;;;11.50;10.40;;;23.00;99.90;;;;;;5095432;28;20494;-65
2022/08/27 09:10:57;;;;;;;10.87;10.00;;;23.00;99.90;;;;;;5095310;28;20450;-65
2022/08/27 09:13:26;;;;;;;11.30;10.40;;;23.10;99.90;;;;;;5095217;28;20880;-66
2022/08/27 09:15:56;;;;;;;10.37;9.57;;;23.10;99.90;;;;;;5095335;28;20561;-66
2022/08/27 09:18:24;;;;;;;10.77;9.67;;;23.10;99.90;;;;;;5095314;28;20446;-65
2022/08/27 09:21:00;;;;;;;10.27;9.37;;;22.90;99.90;;;;;;5095072;28;20569;-66
2022/08/27 09:23:36;;;;;;;10.37;9.37;;;23.00;99.90;;;;;;5095054;28;20453;-66
2022/08/27 09:26:03;;;;;;;11.60;10.70;;;23.00;99.90;;;;;;5095178;28;20446;-66
2022/08/27 09:31:16;;;;;;;10.77;9.87;;;23.10;99.90;;;;;;5094951;28;20434;-65
2022/08/27 09:33:44;;;;;;;9.57;8.67;;;23.10;99.90;;;;;;5094963;28;20443;-65
2022/08/27 09:36:14;;;;;;;9.40;8.70;;;23.10;99.90;;;;;;5094764;28;20443;-65
2022/08/27 09:38:51;;;;;;;10.60;9.53;;;23.10;99.90;;;;;;5094949;28;20443;-65
2022/08/27 09:41:23;;;;;;;8.60;8.00;;;23.00;99.90;;;;;;5094799;28;20453;-65
2022/08/27 09:43:57;;;;;;;8.67;8.03;;;22.80;99.90;;;;;;5094627;28;20453;-65
2022/08/27 09:46:25;;;;;;;7.73;7.13;;;22.80;99.90;;;;;;5094282;28;20831;-65
2022/08/27 09:48:53;;;;;;;8.00;7.40;;;22.80;99.90;;;;;;5094260;28;20825;-65
2022/08/27 09:51:24;;;;;;;7.83;7.23;;;22.80;99.90;;;;;;5094657;28;20911;-65
2022/08/27 09:53:53;;;;;;;8.90;8.10;;;22.70;99.90;;;;;;5094592;28;20451;-65
2022/08/27 09:56:27;;;;;;;8.30;7.60;;;22.70;99.90;;;;;;5094577;28;20870;-65
2022/08/27 09:59:00;;;;;;;8.53;7.83;;;22.70;99.90;;;;;;5094264;28;20472;-66
2022/08/27 10:01:29;;;;;;;8.47;7.87;;;22.60;99.90;;;;;;5094349;28;20945;-65
2022/08/27 10:04:06;;;;;;;9.03;8.17;;;22.50;99.90;;;;;;5093625;28;20492;-65
2022/08/27 10:06:33;;;;;;;9.80;8.90;;;22.40;99.90;;;;;;5094377;28;20540;-65
2022/08/27 10:09:05;;;;;;;10.00;9.20;;;22.50;99.90;;;;;;5094251;28;20438;-65
2022/08/27 10:11:36;;;;;;;8.20;7.67;;;22.50;99.90;;;;;;5094090;28;20846;-65
2022/08/27 10:14:11;;;;;;;11.13;9.20;;;22.70;99.90;;;;;;5094253;28;20447;-65
2022/08/27 10:16:57;;;;;;;9.43;8.63;;;22.80;99.90;;;;;;5094002;28;20441;-65
2022/08/27 10:19:42;;;;;;;10.30;9.47;;;22.80;99.90;;;;;;5093972;28;20462;-65
2022/08/27 10:22:16;;;;;;;9.63;8.93;;;22.90;99.90;;;;;;5094184;28;20434;-66
2022/08/27 10:24:57;;;;;;;8.77;7.90;;;23.00;99.90;;;;;;5093934;28;20445;-65
2022/08/27 10:27:30;;;;;;;9.53;8.63;;;23.00;99.90;;;;;;5093988;28;20478;-66
2022/08/27 10:30:03;;;;;;;9.70;8.87;;;23.10;99.90;;;;;;5093668;28;20451;-65
2022/08/27 10:32:53;;;;;;;9.63;8.83;;;23.20;99.90;;;;;;5093744;28;20798;-65
2022/08/27 10:35:24;;;;;;;9.20;8.37;;;23.40;99.90;;;;;;5093788;28;20451;-65
2022/08/27 10:38:06;;;;;;;8.70;8.10;;;23.40;99.90;;;;;;5093784;28;20456;-65
2022/08/27 10:40:37;;;;;;;9.23;8.53;;;23.20;99.90;;;;;;5093517;28;20474;-66
2022/08/27 10:43:17;;;;;;;10.20;7.87;;;23.30;99.90;;;;;;5093776;28;20446;-65
2022/08/27 10:45:49;;;;;;;9.80;8.90;;;23.30;99.90;;;;;;5093532;28;20457;-65
2022/08/27 10:48:24;;;;;;;8.07;7.47;;;23.00;99.90;;;;;;5093412;28;20502;-65
2022/08/27 10:50:56;;;;;;;8.17;7.57;;;23.10;99.90;;;;;;5093332;28;20442;-65
2022/08/27 10:53:30;;;;;;;8.07;7.37;;;23.10;99.90;;;;;;5093413;28;20991;-66
2022/08/27 10:56:10;;;;;;;9.10;8.33;;;23.20;99.90;;;;;;5093633;28;20458;-66
2022/08/27 10:58:48;;;;;;;10.80;8.73;;;23.40;99.90;;;;;;5093497;28;20451;-65
2022/08/27 11:01:21;;;;;;;8.50;7.80;;;23.20;99.90;;;;;;5093304;28;20482;-65
2022/08/27 11:03:53;;;;;;;7.87;7.27;;;23.40;99.90;;;;;;5093130;28;20485;-66
2022/08/27 11:06:25;;;;;;;9.93;7.43;;;23.50;99.90;;;;;;5093401;28;20474;-66
2022/08/27 11:08:57;;;;;;;8.50;7.97;;;23.60;99.90;;;;;;5093408;28;20539;-65
2022/08/27 11:11:33;;;;;;;7.60;6.93;;;23.70;99.90;;;;;;5093128;28;20454;-65
2022/08/27 11:14:01;;;;;;;7.13;6.53;;;23.80;99.90;;;;;;5093063;28;20449;-65
2022/08/27 11:16:34;;;;;;;7.10;6.57;;;23.80;99.90;;;;;;5093348;28;20450;-66
2022/08/27 11:19:07;;;;;;;7.67;7.17;;;23.90;99.90;;;;;;5093241;28;20453;-65
2022/08/27 11:21:43;;;;;;;7.90;7.27;;;23.90;99.90;;;;;;5093002;28;21010;-65
2022/08/27 11:24:22;;;;;;;7.83;7.20;;;23.80;99.90;;;;;;5093063;28;20456;-65
2022/08/27 11:26:51;;;;;;;8.37;6.57;;;23.80;99.90;;;;;;5093200;28;20449;-65
2022/08/27 11:29:24;;;;;;;6.97;6.43;;;23.90;99.90;;;;;;5093009;28;20465;-66
2022/08/27 11:31:56;;;;;;;7.10;6.43;;;24.00;99.90;;;;;;5093054;28;20545;-65
2022/08/27 11:34:33;;;;;;;6.70;6.20;;;24.00;99.90;;;;;;5092960;28;20454;-65
2022/08/27 11:37:16;;;;;;;6.77;6.27;;;24.00;99.90;;;;;;5092764;28;20446;-66
2022/08/27 11:40:30;;;;;;;6.03;5.63;;;24.20;99.90;;;;;;5092924;28;20473;-66
2022/08/27 11:43:00;;;;;;;6.60;6.10;;;24.30;99.90;;;;;;5092925;28;20809;-65
2022/08/27 11:45:33;;;;;;;6.73;6.23;;;24.40;99.90;;;;;;5092862;28;20486;-66
2022/08/27 11:48:01;;;;;;;6.33;5.93;;;24.20;99.90;;;;;;5092682;28;20466;-66
2022/08/27 11:50:30;;;;;;;6.67;6.17;;;24.10;99.90;;;;;;5092804;28;20875;-66
2022/08/27 11:53:00;;;;;;;7.37;6.87;;;24.00;99.90;;;;;;5092792;28;20450;-66
2022/08/27 11:55:30;;;;;;;6.97;6.47;;;24.00;99.90;;;;;;5092814;28;20474;-66
2022/08/27 11:58:07;;;;;;;6.60;6.10;;;23.90;99.90;;;;;;5092718;28;20580;-66
2022/08/27 12:00:36;;;;;;;6.37;5.97;;;23.80;99.90;;;;;;5092730;28;20509;-66
2022/08/27 12:03:07;;;;;;;7.77;6.90;;;23.80;99.90;;;;;;5092659;28;20442;-66
2022/08/27 12:05:38;;;;;;;7.87;7.23;;;23.80;99.90;;;;;;5092625;28;20454;-66
2022/08/27 12:08:25;;;;;;;7.30;6.70;;;23.80;99.90;;;;;;5092444;28;21033;-66
2022/08/27 12:11:04;;;;;;;8.00;7.30;;;23.90;99.90;;;;;;5092775;28;20821;-67
2022/08/27 12:13:38;;;;;;;7.67;7.17;;;23.90;99.90;;;;;;5092634;28;20450;-66
2022/08/27 12:16:15;;;;;;;7.77;7.00;;;23.80;99.90;;;;;;5092523;28;20541;-66
2022/08/27 12:18:55;;;;;;;6.90;6.40;;;23.90;99.90;;;;;;5092354;28;20996;-66
2022/08/27 12:21:30;;;;;;;6.97;6.50;;;23.90;99.90;;;;;;5092416;28;20572;-66
2022/08/27 12:24:13;;;;;;;6.37;5.97;;;23.90;99.90;;;;;;5092578;28;20450;-66
2022/08/27 12:26:41;;;;;;;7.07;6.57;;;23.90;99.90;;;;;;5095045;28;20446;-66
2022/08/27 12:29:23;;;;;;;7.20;6.70;;;24.00;99.90;;;;;;5096103;28;20451;-66
2022/08/27 12:31:53;;;;;;;7.67;7.10;;;24.00;99.90;;;;;;5096221;28;20450;-66
2022/08/27 12:34:23;;;;;;;7.30;6.70;;;24.00;99.90;;;;;;5096246;28;20938;-66
2022/08/27 12:36:52;;;;;;;7.27;6.60;;;24.00;99.90;;;;;;5096578;28;20447;-66
2022/08/27 12:39:27;;;;;;;8.07;7.37;;;23.90;99.90;;;;;;5096321;28;20538;-66
2022/08/27 12:41:54;;;;;;;7.97;7.27;;;23.80;99.90;;;;;;5096278;28;20488;-66
2022/08/27 12:44:25;;;;;;;9.47;7.43;;;23.60;99.90;;;;;;5096010;28;21019;-66
2022/08/27 12:46:54;;;;;;;7.70;7.10;;;23.60;99.90;;;;;;5095939;28;20462;-66
2022/08/27 12:49:26;;;;;;;7.43;6.93;;;23.70;99.90;;;;;;5095782;28;20446;-66
2022/08/27 12:51:53;;;;;;;10.37;7.17;;;23.40;99.90;;;;;;5095712;28;20462;-66
2022/08/27 12:54:31;;;;;;;9.57;7.20;;;23.30;99.90;;;;;;5095827;28;20493;-66
2022/08/27 12:57:09;;;;;;;8.03;7.43;;;23.40;99.90;;;;;;5095734;28;20541;-66
2022/08/27 12:59:57;;;;;;;8.50;7.70;;;23.40;99.90;;;;;;5095681;28;20446;-66